sensor_id;sensor_type;location;lat;lon;timestamp;pressure;altitude;pressure_sealevel;temperature;humidity
27294;BME280;14785;52.556;13.430;2022-09-09T00:02:20;100264.66;;;18.80;100.00
27294;BME280;14785;52.556;13.430;2022-09-09T00:05:04;100264.94;;;18.96;100.00
27294;BME280;14785;52.556;13.430;2022-09-09T00:07:43;100262.09;;;18.91;100.00
27294;BME280;14785;52.556;13.430;2022-09-09T00:10:16;100263.16;;;19.09;100.00
27294;BME280;14785;52.556;13.430;2022-09-09T00:13:08;100264.50;;;18.99;100.00
27294;BME280;14785;52.556;13.430;2022-09-09T00:18:14;100260.78;;;18.69;100.00
27294;BME280;14785;52.556;13.430;2022-09-09T00:23:37;100265.28;;;18.51;100.00
27294;BME280;14785;52.556;13.430;2022-09-09T00:26:14;100252.09;;;18.36;100.00
27294;BME280;14785;52.556;13.430;2022-09-09T00:31:31;100255.41;;;18.38;100.00
27294;BME280;14785;52.556;13.430;2022-09-09T00:34:13;100258.81;;;18.21;100.00
27294;BME280;14785;52.556;13.430;2022-09-09T00:36:41;100259.22;;;18.24;100.00
27294;BME280;14785;52.556;13.430;2022-09-09T00:39:17;100256.88;;;18.34;100.00
27294;BME280;14785;52.556;13.430;2022-09-09T00:44:27;100252.03;;;18.49;100.00
27294;BME280;14785;52.556;13.430;2022-09-09T00:50:03;100251.69;;;18.33;100.00
27294;BME280;14785;52.556;13.430;2022-09-09T00:52:57;100247.53;;;18.37;100.00
27294;BME280;14785;52.556;13.430;2022-09-09T00:55:48;100254.84;;;18.23;100.00
27294;BME280;14785;52.556;13.430;2022-09-09T00:58:14;100252.66;;;18.07;100.00
27294;BME280;14785;52.556;13.430;2022-09-09T01:01:11;100254.34;;;18.02;100.00
27294;BME280;14785;52.556;13.430;2022-09-09T01:03:43;100251.69;;;17.95;100.00
27294;BME280;14785;52.556;13.430;2022-09-09T01:19:53;100271.84;;;17.73;100.00
27294;BME280;14785;52.556;13.430;2022-09-09T01:25:22;100270.22;;;17.59;100.00
27294;BME280;14785;52.556;13.430;2022-09-09T01:27:56;100278.06;;;17.54;100.00
27294;BME280;14785;52.556;13.430;2022-09-09T01:30:23;100270.03;;;17.48;100.00
27294;BME280;14785;52.556;13.430;2022-09-09T01:32:54;100267.38;;;17.35;100.00
27294;BME280;14785;52.556;13.430;2022-09-09T01:37:51;100277.28;;;17.34;100.00
27294;BME280;14785;52.556;13.430;2022-09-09T01:40:17;100271.47;;;17.50;100.00
27294;BME280;14785;52.556;13.430;2022-09-09T01:42:42;100266.31;;;17.55;100.00
27294;BME280;14785;52.556;13.430;2022-09-09T01:45:08;100266.72;;;17.39;100.00
27294;BME280;14785;52.556;13.430;2022-09-09T01:47:34;100272.50;;;17.56;100.00
27294;BME280;14785;52.556;13.430;2022-09-09T01:50:00;100272.69;;;17.61;100.00
27294;BME280;14785;52.556;13.430;2022-09-09T01:52:26;100269.38;;;17.65;100.00
27294;BME280;14785;52.556;13.430;2022-09-09T01:54:52;100270.38;;;17.77;100.00
27294;BME280;14785;52.556;13.430;2022-09-09T01:57:23;100265.69;;;17.53;100.00
27294;BME280;14785;52.556;13.430;2022-09-09T02:00:10;100269.84;;;17.49;100.00
27294;BME280;14785;52.556;13.430;2022-09-09T02:02:55;100269.41;;;17.33;100.00
27294;BME280;14785;52.556;13.430;2022-09-09T02:05:34;100272.94;;;17.33;100.00
27294;BME280;14785;52.556;13.430;2022-09-09T02:08:16;100271.94;;;17.21;100.00
27294;BME280;14785;52.556;13.430;2022-09-09T02:10:57;100269.00;;;17.42;100.00
27294;BME280;14785;52.556;13.430;2022-09-09T02:13:25;100281.00;;;17.46;100.00
27294;BME280;14785;52.556;13.430;2022-09-09T02:18:47;100281.44;;;17.30;100.00
27294;BME280;14785;52.556;13.430;2022-09-09T02:21:13;100287.63;;;17.31;100.00
27294;BME280;14785;52.556;13.430;2022-09-09T02:23:39;100287.81;;;17.29;100.00
27294;BME280;14785;52.556;13.430;2022-09-09T02:26:06;100286.97;;;17.35;100.00
27294;BME280;14785;52.556;13.430;2022-09-09T02:28:34;100289.50;;;17.43;100.00
27294;BME280;14785;52.556;13.430;2022-09-09T02:31:01;100289.06;;;17.33;100.00
27294;BME280;14785;52.556;13.430;2022-09-09T02:33:33;100283.91;;;17.25;100.00
27294;BME280;14785;52.556;13.430;2022-09-09T02:36:02;100272.31;;;17.44;100.00
27294;BME280;14785;52.556;13.430;2022-09-09T02:38:32;100277.66;;;17.57;100.00
27294;BME280;14785;52.556;13.430;2022-09-09T02:41:00;100272.91;;;17.53;100.00
27294;BME280;14785;52.556;13.430;2022-09-09T02:43:31;100283.03;;;17.57;100.00
27294;BME280;14785;52.556;13.430;2022-09-09T02:46:21;100273.25;;;17.82;100.00
27294;BME280;14785;52.556;13.430;2022-09-09T02:49:18;100273.69;;;17.79;100.00
27294;BME280;14785;52.556;13.430;2022-09-09T02:52:14;100275.19;;;17.62;100.00
27294;BME280;14785;52.556;13.430;2022-09-09T02:54:43;100261.94;;;17.67;100.00
27294;BME280;14785;52.556;13.430;2022-09-09T02:57:22;100264.75;;;17.85;100.00
27294;BME280;14785;52.556;13.430;2022-09-09T02:59:49;100275.09;;;17.88;100.00
27294;BME280;14785;52.556;13.430;2022-09-09T03:02:15;100264.03;;;18.09;100.00
27294;BME280;14785;52.556;13.430;2022-09-09T03:04:41;100266.13;;;18.07;100.00
27294;BME280;14785;52.556;13.430;2022-09-09T03:07:09;100264.25;;;18.08;100.00
27294;BME280;14785;52.556;13.430;2022-09-09T03:09:35;100264.03;;;18.09;100.00
27294;BME280;14785;52.556;13.430;2022-09-09T03:12:00;100263.00;;;18.10;100.00
27294;BME280;14785;52.556;13.430;2022-09-09T03:14:25;100268.19;;;18.05;100.00
27294;BME280;14785;52.556;13.430;2022-09-09T03:16:52;100266.75;;;18.09;100.00
27294;BME280;14785;52.556;13.430;2022-09-09T03:19:18;100278.38;;;17.90;100.00
27294;BME280;14785;52.556;13.430;2022-09-09T03:21:44;100272.69;;;17.67;100.00
27294;BME280;14785;52.556;13.430;2022-09-09T03:24:10;100282.22;;;17.57;100.00
27294;BME280;14785;52.556;13.430;2022-09-09T03:26:35;100294.44;;;17.33;100.00
27294;BME280;14785;52.556;13.430;2022-09-09T03:29:03;100288.88;;;17.28;100.00
27294;BME280;14785;52.556;13.430;2022-09-09T03:31:28;100295.91;;;17.23;100.00
27294;BME280;14785;52.556;13.430;2022-09-09T03:33:56;100295.06;;;17.22;100.00
27294;BME280;14785;52.556;13.430;2022-09-09T03:36:23;100295.91;;;17.16;100.00
27294;BME280;14785;52.556;13.430;2022-09-09T03:38:48;100305.59;;;17.17;100.00
27294;BME280;14785;52.556;13.430;2022-09-09T03:41:14;100297.97;;;17.07;100.00
27294;BME280;14785;52.556;13.430;2022-09-09T03:43:39;100300.25;;;17.04;100.00
27294;BME280;14785;52.556;13.430;2022-09-09T03:46:05;100297.16;;;17.13;100.00
27294;BME280;14785;52.556;13.430;2022-09-09T03:48:30;100296.31;;;17.20;100.00
27294;BME280;14785;52.556;13.430;2022-09-09T03:50:55;100299.19;;;17.31;100.00
27294;BME280;14785;52.556;13.430;2022-09-09T03:53:23;100308.50;;;17.35;100.00
27294;BME280;14785;52.556;13.430;2022-09-09T03:55:52;100306.03;;;17.27;100.00
27294;BME280;14785;52.556;13.430;2022-09-09T03:58:21;100302.09;;;17.36;100.00
27294;BME280;14785;52.556;13.430;2022-09-09T04:00:57;100307.66;;;17.54;100.00
27294;BME280;14785;52.556;13.430;2022-09-09T04:03:24;100302.50;;;17.59;100.00
27294;BME280;14785;52.556;13.430;2022-09-09T04:05:51;100293.00;;;17.37;100.00
27294;BME280;14785;52.556;13.430;2022-09-09T04:08:16;100294.44;;;17.40;100.00
27294;BME280;14785;52.556;13.430;2022-09-09T04:10:42;100290.94;;;17.52;100.00
27294;BME280;14785;52.556;13.430;2022-09-09T04:13:07;100291.13;;;17.44;100.00
27294;BME280;14785;52.556;13.430;2022-09-09T04:15:32;100288.78;;;17.80;100.00
27294;BME280;14785;52.556;13.430;2022-09-09T04:17:59;100278.03;;;17.80;100.00
27294;BME280;14785;52.556;13.430;2022-09-09T04:20:25;100277.53;;;17.96;100.00
27294;BME280;14785;52.556;13.430;2022-09-09T04:22:51;100280.44;;;17.95;100.00
27294;BME280;14785;52.556;13.430;2022-09-09T04:25:16;100280.72;;;17.80;100.00
27294;BME280;14785;52.556;13.430;2022-09-09T04:27:41;100282.97;;;17.83;100.00
27294;BME280;14785;52.556;13.430;2022-09-09T04:30:08;100283.84;;;17.71;100.00
27294;BME280;14785;52.556;13.430;2022-09-09T04:32:33;100291.28;;;17.75;100.00
27294;BME280;14785;52.556;13.430;2022-09-09T04:34:59;100295.00;;;17.81;100.00
27294;BME280;14785;52.556;13.430;2022-09-09T04:37:24;100294.97;;;17.87;100.00
27294;BME280;14785;52.556;13.430;2022-09-09T04:39:50;100297.47;;;17.82;100.00
27294;BME280;14785;52.556;13.430;2022-09-09T04:42:15;100303.84;;;17.94;100.00
27294;BME280;14785;52.556;13.430;2022-09-09T04:44:42;100298.84;;;18.04;100.00
27294;BME280;14785;52.556;13.430;2022-09-09T04:47:08;100303.91;;;17.68;100.00
27294;BME280;14785;52.556;13.430;2022-09-09T04:49:34;100300.00;;;17.64;100.00
27294;BME280;14785;52.556;13.430;2022-09-09T04:52:01;100303.22;;;17.99;100.00
27294;BME280;14785;52.556;13.430;2022-09-09T04:54:26;100310.09;;;17.82;100.00
27294;BME280;14785;52.556;13.430;2022-09-09T04:56:53;100305.91;;;17.92;100.00
27294;BME280;14785;52.556;13.430;2022-09-09T04:59:20;100305.91;;;17.92;100.00
27294;BME280;14785;52.556;13.430;2022-09-09T05:01:45;100306.50;;;18.07;100.00
27294;BME280;14785;52.556;13.430;2022-09-09T05:04:10;100313.56;;;17.89;100.00
27294;BME280;14785;52.556;13.430;2022-09-09T05:06:36;100325.59;;;17.86;100.00
27294;BME280;14785;52.556;13.430;2022-09-09T05:09:02;100321.84;;;18.00;100.00
27294;BME280;14785;52.556;13.430;2022-09-09T05:11:30;100314.41;;;17.89;100.00
27294;BME280;14785;52.556;13.430;2022-09-09T05:13:57;100319.75;;;18.02;100.00
27294;BME280;14785;52.556;13.430;2022-09-09T05:16:22;100324.81;;;17.66;100.00
27294;BME280;14785;52.556;13.430;2022-09-09T05:18:48;100320.28;;;17.67;100.00
27294;BME280;14785;52.556;13.430;2022-09-09T05:21:17;100332.69;;;17.61;100.00
27294;BME280;14785;52.556;13.430;2022-09-09T05:23:44;100326.91;;;17.64;100.00
27294;BME280;14785;52.556;13.430;2022-09-09T05:26:14;100312.94;;;17.93;100.00
27294;BME280;14785;52.556;13.430;2022-09-09T05:28:39;100314.13;;;18.10;100.00
27294;BME280;14785;52.556;13.430;2022-09-09T05:31:07;100314.22;;;18.41;100.00
27294;BME280;14785;52.556;13.430;2022-09-09T05:33:40;100314.69;;;18.32;100.00
27294;BME280;14785;52.556;13.430;2022-09-09T05:36:10;100314.88;;;18.37;100.00
27294;BME280;14785;52.556;13.430;2022-09-09T05:38:38;100310.16;;;18.26;100.00
27294;BME280;14785;52.556;13.430;2022-09-09T05:41:04;100310.50;;;18.42;100.00
27294;BME280;14785;52.556;13.430;2022-09-09T05:43:30;100316.59;;;18.18;100.00
27294;BME280;14785;52.556;13.430;2022-09-09T05:46:05;100315.97;;;18.16;100.00
27294;BME280;14785;52.556;13.430;2022-09-09T05:48:32;100317.41;;;18.19;100.00
27294;BME280;14785;52.556;13.430;2022-09-09T05:50:58;100309.31;;;18.25;100.00
27294;BME280;14785;52.556;13.430;2022-09-09T05:53:25;100315.13;;;18.22;100.00
27294;BME280;14785;52.556;13.430;2022-09-09T05:55:57;100314.28;;;18.28;100.00
27294;BME280;14785;52.556;13.430;2022-09-09T05:58:23;100315.09;;;18.29;100.00
27294;BME280;14785;52.556;13.430;2022-09-09T06:00:49;100317.19;;;18.20;100.00
27294;BME280;14785;52.556;13.430;2022-09-09T06:03:15;100318.88;;;18.21;100.00
27294;BME280;14785;52.556;13.430;2022-09-09T06:05:41;100322.56;;;18.20;100.00
27294;BME280;14785;52.556;13.430;2022-09-09T06:08:07;100330.75;;;17.94;100.00
27294;BME280;14785;52.556;13.430;2022-09-09T06:10:32;100338.00;;;18.00;100.00
27294;BME280;14785;52.556;13.430;2022-09-09T06:12:59;100339.63;;;18.01;100.00
27294;BME280;14785;52.556;13.430;2022-09-09T06:15:24;100348.78;;;17.87;100.00
27294;BME280;14785;52.556;13.430;2022-09-09T06:17:54;100348.78;;;17.87;100.00
27294;BME280;14785;52.556;13.430;2022-09-09T06:20:20;100351.56;;;18.25;100.00
27294;BME280;14785;52.556;13.430;2022-09-09T06:22:47;100348.53;;;18.02;100.00
27294;BME280;14785;52.556;13.430;2022-09-09T06:25:14;100359.53;;;18.00;100.00
27294;BME280;14785;52.556;13.430;2022-09-09T06:27:39;100351.25;;;17.95;100.00
27294;BME280;14785;52.556;13.430;2022-09-09T06:30:06;100351.63;;;18.05;100.00
27294;BME280;14785;52.556;13.430;2022-09-09T06:32:32;100353.59;;;18.29;100.00
27294;BME280;14785;52.556;13.430;2022-09-09T06:35:01;100344.03;;;18.46;100.00
27294;BME280;14785;52.556;13.430;2022-09-09T06:37:27;100345.59;;;18.60;100.00
27294;BME280;14785;52.556;13.430;2022-09-09T06:39:52;100344.84;;;18.84;100.00
27294;BME280;14785;52.556;13.430;2022-09-09T06:42:19;100350.34;;;18.65;100.00
27294;BME280;14785;52.556;13.430;2022-09-09T06:44:44;100353.09;;;18.58;100.00
27294;BME280;14785;52.556;13.430;2022-09-09T06:47:10;100352.66;;;18.61;100.00
27294;BME280;14785;52.556;13.430;2022-09-09T06:49:36;100357.75;;;18.32;100.00
27294;BME280;14785;52.556;13.430;2022-09-09T06:52:01;100355.66;;;18.47;100.00
27294;BME280;14785;52.556;13.430;2022-09-09T06:54:26;100362.59;;;18.67;100.00
27294;BME280;14785;52.556;13.430;2022-09-09T06:56:51;100363.25;;;18.94;100.00
27294;BME280;14785;52.556;13.430;2022-09-09T06:59:17;100361.03;;;19.16;100.00
27294;BME280;14785;52.556;13.430;2022-09-09T07:01:43;100359.34;;;19.15;100.00
27294;BME280;14785;52.556;13.430;2022-09-09T07:04:17;100353.03;;;19.34;100.00
27294;BME280;14785;52.556;13.430;2022-09-09T07:06:45;100354.75;;;19.71;100.00
27294;BME280;14785;52.556;13.430;2022-09-09T07:09:13;100348.03;;;19.98;100.00
27294;BME280;14785;52.556;13.430;2022-09-09T07:11:41;100352.06;;;19.71;100.00
27294;BME280;14785;52.556;13.430;2022-09-09T07:14:07;100347.72;;;20.06;100.00
27294;BME280;14785;52.556;13.430;2022-09-09T07:16:33;100345.34;;;19.98;100.00
27294;BME280;14785;52.556;13.430;2022-09-09T07:18:58;100353.53;;;19.67;100.00
27294;BME280;14785;52.556;13.430;2022-09-09T07:21:25;100354.31;;;19.92;100.00
27294;BME280;14785;52.556;13.430;2022-09-09T07:23:54;100350.72;;;19.98;100.00
27294;BME280;14785;52.556;13.430;2022-09-09T07:26:22;100357.47;;;20.07;100.00
27294;BME280;14785;52.556;13.430;2022-09-09T07:28:48;100362.34;;;19.98;100.00
27294;BME280;14785;52.556;13.430;2022-09-09T07:31:16;100349.13;;;19.72;100.00
27294;BME280;14785;52.556;13.430;2022-09-09T07:33:42;100350.56;;;20.11;100.00
27294;BME280;14785;52.556;13.430;2022-09-09T07:36:13;100353.94;;;20.06;100.00
27294;BME280;14785;52.556;13.430;2022-09-09T07:38:40;100355.97;;;20.11;100.00
27294;BME280;14785;52.556;13.430;2022-09-09T07:41:08;100355.56;;;20.14;100.00
27294;BME280;14785;52.556;13.430;2022-09-09T07:43:42;100354.56;;;20.44;100.00
27294;BME280;14785;52.556;13.430;2022-09-09T07:46:09;100355.06;;;20.83;100.00
27294;BME280;14785;52.556;13.430;2022-09-09T07:48:35;100345.16;;;20.76;100.00
27294;BME280;14785;52.556;13.430;2022-09-09T07:51:12;100362.84;;;21.20;100.00
27294;BME280;14785;52.556;13.430;2022-09-09T07:53:42;100358.72;;;21.18;100.00
27294;BME280;14785;52.556;13.430;2022-09-09T07:56:10;100363.41;;;21.11;100.00
27294;BME280;14785;52.556;13.430;2022-09-09T07:58:37;100362.19;;;20.95;100.00
27294;BME280;14785;52.556;13.430;2022-09-09T08:01:11;100355.41;;;21.04;100.00
27294;BME280;14785;52.556;13.430;2022-09-09T08:03:37;100362.47;;;20.87;100.00
27294;BME280;14785;52.556;13.430;2022-09-09T08:06:05;100354.97;;;20.89;100.00
27294;BME280;14785;52.556;13.430;2022-09-09T08:08:32;100360.50;;;20.94;100.00
27294;BME280;14785;52.556;13.430;2022-09-09T08:11:07;100350.38;;;20.60;100.00
27294;BME280;14785;52.556;13.430;2022-09-09T08:13:36;100361.19;;;20.60;100.00
27294;BME280;14785;52.556;13.430;2022-09-09T08:16:14;100361.75;;;20.98;100.00
27294;BME280;14785;52.556;13.430;2022-09-09T08:18:40;100368.34;;;21.14;100.00
27294;BME280;14785;52.556;13.430;2022-09-09T08:21:11;100365.31;;;21.33;100.00
27294;BME280;14785;52.556;13.430;2022-09-09T08:23:39;100367.72;;;21.00;100.00
27294;BME280;14785;52.556;13.430;2022-09-09T08:26:10;100361.44;;;21.29;100.00
27294;BME280;14785;52.556;13.430;2022-09-09T08:28:36;100377.91;;;21.16;100.00
27294;BME280;14785;52.556;13.430;2022-09-09T08:31:15;100372.66;;;20.44;100.00
27294;BME280;14785;52.556;13.430;2022-09-09T08:33:42;100376.03;;;20.69;100.00
27294;BME280;14785;52.556;13.430;2022-09-09T08:36:13;100367.50;;;20.83;100.00
27294;BME280;14785;52.556;13.430;2022-09-09T08:38:40;100367.16;;;20.98;100.00
27294;BME280;14785;52.556;13.430;2022-09-09T08:44:02;100371.66;;;21.16;100.00
27294;BME280;14785;52.556;13.430;2022-09-09T08:46:39;100376.69;;;21.12;100.00
27294;BME280;14785;52.556;13.430;2022-09-09T08:49:23;100384.53;;;21.43;100.00
27294;BME280;14785;52.556;13.430;2022-09-09T08:51:54;100383.16;;;21.75;100.00
27294;BME280;14785;52.556;13.430;2022-09-09T08:54:21;100381.94;;;21.48;100.00
27294;BME280;14785;52.556;13.430;2022-09-09T08:56:47;100389.75;;;21.79;100.00
27294;BME280;14785;52.556;13.430;2022-09-09T08:59:17;100382.81;;;21.83;100.00
27294;BME280;14785;52.556;13.430;2022-09-09T09:04:37;100390.09;;;22.06;100.00
27294;BME280;14785;52.556;13.430;2022-09-09T09:07:35;100385.06;;;21.86;100.00
27294;BME280;14785;52.556;13.430;2022-09-09T09:12:41;100375.34;;;22.25;100.00
27294;BME280;14785;52.556;13.430;2022-09-09T09:15:17;100380.22;;;21.77;100.00
27294;BME280;14785;52.556;13.430;2022-09-09T09:17:44;100390.34;;;21.93;100.00
27294;BME280;14785;52.556;13.430;2022-09-09T09:20:14;100380.56;;;22.15;100.00
27294;BME280;14785;52.556;13.430;2022-09-09T09:22:51;100386.03;;;22.43;100.00
27294;BME280;14785;52.556;13.430;2022-09-09T09:25:20;100380.09;;;22.86;100.00
27294;BME280;14785;52.556;13.430;2022-09-09T09:30:56;100379.81;;;22.99;100.00
27294;BME280;14785;52.556;13.430;2022-09-09T09:36:08;100377.94;;;23.44;100.00
27294;BME280;14785;52.556;13.430;2022-09-09T09:38:35;100379.56;;;23.45;100.00
27294;BME280;14785;52.556;13.430;2022-09-09T09:41:01;100377.47;;;23.85;100.00
27294;BME280;14785;52.556;13.430;2022-09-09T09:43:28;100371.16;;;23.79;100.00
27294;BME280;14785;52.556;13.430;2022-09-09T09:45:55;100366.72;;;23.24;100.00
27294;BME280;14785;52.556;13.430;2022-09-09T09:48:23;100377.84;;;23.72;100.00
27294;BME280;14785;52.556;13.430;2022-09-09T09:51:13;100371.38;;;23.12;100.00
27294;BME280;14785;52.556;13.430;2022-09-09T09:53:41;100372.69;;;22.81;100.00
27294;BME280;14785;52.556;13.430;2022-09-09T09:56:09;100382.34;;;22.61;100.00
27294;BME280;14785;52.556;13.430;2022-09-09T10:03:54;100384.81;;;21.99;100.00
27294;BME280;14785;52.556;13.430;2022-09-09T10:06:35;100369.13;;;22.92;100.00
27294;BME280;14785;52.556;13.430;2022-09-09T10:09:03;100373.63;;;23.81;100.00
27294;BME280;14785;52.556;13.430;2022-09-09T10:12:03;100376.28;;;23.59;100.00
27294;BME280;14785;52.556;13.430;2022-09-09T10:14:45;100374.09;;;23.94;100.00
27294;BME280;14785;52.556;13.430;2022-09-09T10:20:15;100376.09;;;24.85;100.00
27294;BME280;14785;52.556;13.430;2022-09-09T10:22:48;100368.09;;;25.00;100.00
27294;BME280;14785;52.556;13.430;2022-09-09T10:28:17;100371.69;;;24.79;100.00
27294;BME280;14785;52.556;13.430;2022-09-09T10:31:13;100374.25;;;25.85;100.00
27294;BME280;14785;52.556;13.430;2022-09-09T10:33:51;100380.56;;;25.91;100.00
27294;BME280;14785;52.556;13.430;2022-09-09T10:36:22;100381.16;;;25.56;100.00
27294;BME280;14785;52.556;13.430;2022-09-09T10:39:01;100377.16;;;26.10;100.00
27294;BME280;14785;52.556;13.430;2022-09-09T10:41:50;100382.50;;;25.95;100.00
27294;BME280;14785;52.556;13.430;2022-09-09T10:44:27;100383.78;;;25.46;100.00
27294;BME280;14785;52.556;13.430;2022-09-09T10:50:06;100396.41;;;25.57;100.00
27294;BME280;14785;52.556;13.430;2022-09-09T10:55:18;100388.69;;;26.23;100.00
27294;BME280;14785;52.556;13.430;2022-09-09T10:57:47;100381.25;;;26.08;100.00
27294;BME280;14785;52.556;13.430;2022-09-09T11:00:18;100393.72;;;26.46;100.00
27294;BME280;14785;52.556;13.430;2022-09-09T11:02:51;100396.84;;;26.18;100.00
27294;BME280;14785;52.556;13.430;2022-09-09T11:05:20;100396.03;;;26.74;100.00
27294;BME280;14785;52.556;13.430;2022-09-09T11:07:55;100381.28;;;26.75;100.00
27294;BME280;14785;52.556;13.430;2022-09-09T11:10:27;100379.75;;;27.19;100.00
27294;BME280;14785;52.556;13.430;2022-09-09T11:12:59;100379.97;;;26.92;100.00
27294;BME280;14785;52.556;13.430;2022-09-09T11:15:42;100381.69;;;27.53;100.00
27294;BME280;14785;52.556;13.430;2022-09-09T11:18:21;100372.41;;;27.34;100.00
27294;BME280;14785;52.556;13.430;2022-09-09T11:20:50;100385.25;;;27.49;100.00
27294;BME280;14785;52.556;13.430;2022-09-09T11:23:26;100381.38;;;27.75;100.00
27294;BME280;14785;52.556;13.430;2022-09-09T11:25:56;100374.53;;;27.82;100.00
27294;BME280;14785;52.556;13.430;2022-09-09T11:28:42;100378.06;;;28.08;100.00
27294;BME280;14785;52.556;13.430;2022-09-09T11:37:17;100368.19;;;26.77;100.00
27294;BME280;14785;52.556;13.430;2022-09-09T11:42:42;100376.41;;;26.92;100.00
27294;BME280;14785;52.556;13.430;2022-09-09T11:45:10;100373.78;;;27.57;100.00
27294;BME280;14785;52.556;13.430;2022-09-09T11:47:36;100379.22;;;27.97;100.00
27294;BME280;14785;52.556;13.430;2022-09-09T11:52:41;100370.22;;;26.40;100.00
27294;BME280;14785;52.556;13.430;2022-09-09T11:55:32;100366.38;;;26.31;100.00
27294;BME280;14785;52.556;13.430;2022-09-09T11:58:00;100364.75;;;27.41;100.00
27294;BME280;14785;52.556;13.430;2022-09-09T12:00:39;100364.94;;;28.15;100.00
27294;BME280;14785;52.556;13.430;2022-09-09T12:03:45;100357.34;;;27.92;100.00
27294;BME280;14785;52.556;13.430;2022-09-09T12:06:31;100348.88;;;27.68;100.00
27294;BME280;14785;52.556;13.430;2022-09-09T12:11:34;100343.38;;;28.67;100.00
27294;BME280;14785;52.556;13.430;2022-09-09T12:14:00;100336.78;;;29.17;100.00
27294;BME280;14785;52.556;13.430;2022-09-09T12:16:36;100339.69;;;29.30;100.00
27294;BME280;14785;52.556;13.430;2022-09-09T12:21:44;100323.47;;;29.00;100.00
27294;BME280;14785;52.556;13.430;2022-09-09T12:24:13;100325.75;;;29.55;100.00
27294;BME280;14785;52.556;13.430;2022-09-09T12:29:43;100335.66;;;29.51;99.62
27294;BME280;14785;52.556;13.430;2022-09-09T12:32:15;100320.84;;;29.19;100.00
27294;BME280;14785;52.556;13.430;2022-09-09T12:39:56;100318.00;;;26.93;100.00
27294;BME280;14785;52.556;13.430;2022-09-09T12:42:23;100311.47;;;27.24;100.00
27294;BME280;14785;52.556;13.430;2022-09-09T12:45:03;100308.69;;;26.84;100.00
27294;BME280;14785;52.556;13.430;2022-09-09T12:50:20;100310.63;;;27.08;100.00
27294;BME280;14785;52.556;13.430;2022-09-09T12:52:47;100310.34;;;26.95;100.00
27294;BME280;14785;52.556;13.430;2022-09-09T12:55:20;100303.66;;;26.36;100.00
27294;BME280;14785;52.556;13.430;2022-09-09T12:57:47;100304.22;;;26.43;100.00
27294;BME280;14785;52.556;13.430;2022-09-09T13:00:20;100308.03;;;26.47;100.00
27294;BME280;14785;52.556;13.430;2022-09-09T13:02:50;100311.91;;;26.61;100.00
27294;BME280;14785;52.556;13.430;2022-09-09T13:05:20;100318.72;;;26.53;100.00
27294;BME280;14785;52.556;13.430;2022-09-09T13:07:45;100321.19;;;26.55;100.00
27294;BME280;14785;52.556;13.430;2022-09-09T13:10:13;100322.28;;;26.59;100.00
27294;BME280;14785;52.556;13.430;2022-09-09T13:12:40;100325.63;;;26.04;100.00
27294;BME280;14785;52.556;13.430;2022-09-09T13:15:16;100330.78;;;26.00;100.00
27294;BME280;14785;52.556;13.430;2022-09-09T13:17:50;100324.31;;;26.17;100.00
27294;BME280;14785;52.556;13.430;2022-09-09T13:20:17;100325.16;;;25.80;100.00
27294;BME280;14785;52.556;13.430;2022-09-09T13:22:43;100317.03;;;25.85;100.00
27294;BME280;14785;52.556;13.430;2022-09-09T13:27:38;100311.28;;;25.82;100.00
27294;BME280;14785;52.556;13.430;2022-09-09T13:30:40;100309.91;;;25.79;100.00
27294;BME280;14785;52.556;13.430;2022-09-09T13:35:58;100300.41;;;25.87;100.00
27294;BME280;14785;52.556;13.430;2022-09-09T13:38:25;100295.69;;;25.67;100.00
27294;BME280;14785;52.556;13.430;2022-09-09T13:41:00;100293.47;;;25.64;100.00
27294;BME280;14785;52.556;13.430;2022-09-09T13:43:43;100293.44;;;25.54;100.00
27294;BME280;14785;52.556;13.430;2022-09-09T13:46:38;100303.56;;;26.10;100.00
27294;BME280;14785;52.556;13.430;2022-09-09T13:51:43;100299.41;;;26.65;100.00
27294;BME280;14785;52.556;13.430;2022-09-09T13:54:14;100289.59;;;26.79;100.00
27294;BME280;14785;52.556;13.430;2022-09-09T13:56:40;100281.63;;;26.57;100.00
27294;BME280;14785;52.556;13.430;2022-09-09T13:59:18;100296.47;;;27.26;100.00
27294;BME280;14785;52.556;13.430;2022-09-09T14:01:47;100298.19;;;28.16;100.00
27294;BME280;14785;52.556;13.430;2022-09-09T14:04:14;100296.63;;;28.00;100.00
27294;BME280;14785;52.556;13.430;2022-09-09T14:06:40;100292.50;;;27.98;100.00
27294;BME280;14785;52.556;13.430;2022-09-09T14:09:09;100296.44;;;27.56;100.00
27294;BME280;14785;52.556;13.430;2022-09-09T14:11:34;100296.72;;;27.50;100.00
27294;BME280;14785;52.556;13.430;2022-09-09T14:14:00;100305.47;;;27.47;100.00
27294;BME280;14785;52.556;13.430;2022-09-09T14:16:26;100302.47;;;27.38;100.00
27294;BME280;14785;52.556;13.430;2022-09-09T14:18:53;100302.94;;;27.80;100.00
27294;BME280;14785;52.556;13.430;2022-09-09T14:21:18;100293.13;;;27.74;100.00
27294;BME280;14785;52.556;13.430;2022-09-09T14:23:43;100289.88;;;27.12;100.00
27294;BME280;14785;52.556;13.430;2022-09-09T14:26:09;100292.31;;;26.74;100.00
27294;BME280;14785;52.556;13.430;2022-09-09T14:28:36;100289.63;;;26.02;100.00
27294;BME280;14785;52.556;13.430;2022-09-09T14:31:03;100293.06;;;25.87;100.00